sensor_id;sensor_type;location;lat;lon;timestamp;P1;durP1;ratioP1;P2;durP2;ratioP2
54271;SDS011;40184;53.362;5.216;2023-07-28T00:01:26;27.27;;;6.55;;
54271;SDS011;40184;53.362;5.216;2023-07-28T00:03:53;26.48;;;6.13;;
54271;SDS011;40184;53.362;5.216;2023-07-28T00:06:19;36.78;;;7.65;;
54271;SDS011;40184;53.362;5.216;2023-07-28T00:08:45;33.90;;;8.07;;
54271;SDS011;40184;53.362;5.216;2023-07-28T00:11:13;31.38;;;6.85;;
54271;SDS011;40184;53.362;5.216;2023-07-28T00:13:40;29.77;;;6.40;;
54271;SDS011;40184;53.362;5.216;2023-07-28T00:16:06;31.33;;;8.38;;
54271;SDS011;40184;53.362;5.216;2023-07-28T00:18:33;28.08;;;6.05;;
54271;SDS011;40184;53.362;5.216;2023-07-28T00:20:59;26.90;;;6.13;;
54271;SDS011;40184;53.362;5.216;2023-07-28T00:23:25;34.03;;;7.10;;
54271;SDS011;40184;53.362;5.216;2023-07-28T00:25:52;35.25;;;6.35;;
54271;SDS011;40184;53.362;5.216;2023-07-28T00:28:18;35.17;;;6.30;;
54271;SDS011;40184;53.362;5.216;2023-07-28T00:30:44;28.33;;;6.47;;
54271;SDS011;40184;53.362;5.216;2023-07-28T00:33:10;32.97;;;6.20;;
54271;SDS011;40184;53.362;5.216;2023-07-28T00:35:36;26.20;;;6.22;;
54271;SDS011;40184;53.362;5.216;2023-07-28T00:38:02;26.50;;;6.78;;
54271;SDS011;40184;53.362;5.216;2023-07-28T00:40:28;26.30;;;5.95;;
54271;SDS011;40184;53.362;5.216;2023-07-28T00:42:54;29.73;;;5.60;;
54271;SDS011;40184;53.362;5.216;2023-07-28T00:45:20;26.08;;;6.07;;
54271;SDS011;40184;53.362;5.216;2023-07-28T00:47:47;33.83;;;7.03;;
54271;SDS011;40184;53.362;5.216;2023-07-28T00:50:13;33.75;;;6.38;;
54271;SDS011;40184;53.362;5.216;2023-07-28T00:52:39;27.45;;;7.00;;
54271;SDS011;40184;53.362;5.216;2023-07-28T00:55:06;27.98;;;7.18;;
54271;SDS011;40184;53.362;5.216;2023-07-28T00:57:33;23.40;;;5.90;;
54271;SDS011;40184;53.362;5.216;2023-07-28T00:59:59;31.33;;;7.47;;
54271;SDS011;40184;53.362;5.216;2023-07-28T01:02:26;36.53;;;6.88;;
54271;SDS011;40184;53.362;5.216;2023-07-28T01:04:52;31.65;;;6.43;;
54271;SDS011;40184;53.362;5.216;2023-07-28T01:12:16;24.88;;;7.05;;
54271;SDS011;40184;53.362;5.216;2023-07-28T01:14:43;30.67;;;7.60;;
54271;SDS011;40184;53.362;5.216;2023-07-28T01:17:09;37.55;;;5.78;;
54271;SDS011;40184;53.362;5.216;2023-07-28T01:19:35;27.85;;;5.35;;
54271;SDS011;40184;53.362;5.216;2023-07-28T01:22:06;28.73;;;5.55;;
54271;SDS011;40184;53.362;5.216;2023-07-28T01:24:42;23.77;;;4.35;;
54271;SDS011;40184;53.362;5.216;2023-07-28T01:27:15;31.30;;;6.00;;
54271;SDS011;40184;53.362;5.216;2023-07-28T01:29:42;28.80;;;5.97;;
54271;SDS011;40184;53.362;5.216;2023-07-28T01:32:10;22.95;;;5.32;;
54271;SDS011;40184;53.362;5.216;2023-07-28T01:34:36;26.42;;;5.75;;
54271;SDS011;40184;53.362;5.216;2023-07-28T01:37:02;24.75;;;4.75;;
54271;SDS011;40184;53.362;5.216;2023-07-28T01:39:28;28.23;;;5.85;;
54271;SDS011;40184;53.362;5.216;2023-07-28T01:41:54;22.02;;;5.65;;
54271;SDS011;40184;53.362;5.216;2023-07-28T01:44:20;20.77;;;5.13;;
54271;SDS011;40184;53.362;5.216;2023-07-28T01:46:47;27.35;;;5.60;;
54271;SDS011;40184;53.362;5.216;2023-07-28T01:49:13;30.45;;;6.05;;
54271;SDS011;40184;53.362;5.216;2023-07-28T01:51:39;27.23;;;6.15;;
54271;SDS011;40184;53.362;5.216;2023-07-28T01:54:05;32.78;;;5.55;;
54271;SDS011;40184;53.362;5.216;2023-07-28T01:56:31;15.75;;;3.97;;
54271;SDS011;40184;53.362;5.216;2023-07-28T01:58:57;29.02;;;6.22;;
54271;SDS011;40184;53.362;5.216;2023-07-28T02:01:23;19.88;;;5.32;;
54271;SDS011;40184;53.362;5.216;2023-07-28T02:03:49;21.30;;;4.32;;
54271;SDS011;40184;53.362;5.216;2023-07-28T02:06:15;15.35;;;4.45;;
54271;SDS011;40184;53.362;5.216;2023-07-28T02:08:41;17.17;;;4.03;;
54271;SDS011;40184;53.362;5.216;2023-07-28T02:11:07;18.48;;;3.85;;
54271;SDS011;40184;53.362;5.216;2023-07-28T02:13:34;12.38;;;3.97;;
54271;SDS011;40184;53.362;5.216;2023-07-28T02:16:00;11.98;;;3.88;;
54271;SDS011;40184;53.362;5.216;2023-07-28T02:18:26;9.18;;;2.88;;
54271;SDS011;40184;53.362;5.216;2023-07-28T02:20:52;12.63;;;3.35;;
54271;SDS011;40184;53.362;5.216;2023-07-28T02:23:18;11.88;;;3.78;;
54271;SDS011;40184;53.362;5.216;2023-07-28T02:25:44;11.27;;;3.17;;
54271;SDS011;40184;53.362;5.216;2023-07-28T02:28:11;18.83;;;3.90;;
54271;SDS011;40184;53.362;5.216;2023-07-28T02:30:37;12.95;;;3.80;;
54271;SDS011;40184;53.362;5.216;2023-07-28T02:33:03;10.43;;;2.92;;
54271;SDS011;40184;53.362;5.216;2023-07-28T02:35:30;8.25;;;3.20;;
54271;SDS011;40184;53.362;5.216;2023-07-28T02:37:57;8.02;;;2.95;;
54271;SDS011;40184;53.362;5.216;2023-07-28T02:40:23;12.77;;;3.80;;
54271;SDS011;40184;53.362;5.216;2023-07-28T02:42:49;10.75;;;3.55;;
54271;SDS011;40184;53.362;5.216;2023-07-28T02:45:15;10.32;;;4.03;;
54271;SDS011;40184;53.362;5.216;2023-07-28T02:47:42;13.20;;;4.13;;
54271;SDS011;40184;53.362;5.216;2023-07-28T02:50:08;12.20;;;3.05;;
54271;SDS011;40184;53.362;5.216;2023-07-28T02:52:35;11.15;;;3.72;;
54271;SDS011;40184;53.362;5.216;2023-07-28T02:55:01;12.95;;;4.00;;
54271;SDS011;40184;53.362;5.216;2023-07-28T02:57:27;13.95;;;4.15;;
54271;SDS011;40184;53.362;5.216;2023-07-28T02:59:53;10.10;;;3.55;;
54271;SDS011;40184;53.362;5.216;2023-07-28T03:02:19;6.55;;;3.03;;
54271;SDS011;40184;53.362;5.216;2023-07-28T03:04:45;7.18;;;3.38;;
54271;SDS011;40184;53.362;5.216;2023-07-28T03:07:11;11.20;;;3.92;;
54271;SDS011;40184;53.362;5.216;2023-07-28T03:09:37;6.60;;;3.42;;
54271;SDS011;40184;53.362;5.216;2023-07-28T03:12:03;8.40;;;3.35;;
54271;SDS011;40184;53.362;5.216;2023-07-28T03:14:31;8.40;;;4.10;;
54271;SDS011;40184;53.362;5.216;2023-07-28T03:16:57;10.68;;;3.33;;
54271;SDS011;40184;53.362;5.216;2023-07-28T03:19:23;10.32;;;4.20;;
54271;SDS011;40184;53.362;5.216;2023-07-28T03:21:49;6.13;;;3.22;;
54271;SDS011;40184;53.362;5.216;2023-07-28T03:24:15;5.43;;;3.30;;
54271;SDS011;40184;53.362;5.216;2023-07-28T03:26:41;24.52;;;4.82;;
54271;SDS011;40184;53.362;5.216;2023-07-28T03:29:07;5.25;;;4.40;;
54271;SDS011;40184;53.362;5.216;2023-07-28T03:31:34;8.60;;;4.32;;
54271;SDS011;40184;53.362;5.216;2023-07-28T03:34:01;8.57;;;4.38;;
54271;SDS011;40184;53.362;5.216;2023-07-28T03:36:27;6.78;;;4.22;;
54271;SDS011;40184;53.362;5.216;2023-07-28T03:38:53;8.80;;;4.57;;
54271;SDS011;40184;53.362;5.216;2023-07-28T03:41:19;9.60;;;4.57;;
54271;SDS011;40184;53.362;5.216;2023-07-28T03:43:46;5.60;;;3.90;;
54271;SDS011;40184;53.362;5.216;2023-07-28T03:46:12;6.32;;;4.57;;
54271;SDS011;40184;53.362;5.216;2023-07-28T03:48:38;6.15;;;4.80;;
54271;SDS011;40184;53.362;5.216;2023-07-28T03:51:04;7.55;;;4.53;;
54271;SDS011;40184;53.362;5.216;2023-07-28T03:53:30;7.65;;;5.22;;
54271;SDS011;40184;53.362;5.216;2023-07-28T03:55:56;9.57;;;4.70;;
54271;SDS011;40184;53.362;5.216;2023-07-28T03:58:23;7.15;;;5.18;;
54271;SDS011;40184;53.362;5.216;2023-07-28T04:00:50;9.20;;;5.60;;
54271;SDS011;40184;53.362;5.216;2023-07-28T04:03:16;10.07;;;5.45;;
54271;SDS011;40184;53.362;5.216;2023-07-28T04:05:42;12.05;;;7.22;;
54271;SDS011;40184;53.362;5.216;2023-07-28T04:08:08;10.05;;;5.90;;
54271;SDS011;40184;53.362;5.216;2023-07-28T04:10:34;6.55;;;5.32;;
54271;SDS011;40184;53.362;5.216;2023-07-28T04:13:00;11.27;;;6.13;;
54271;SDS011;40184;53.362;5.216;2023-07-28T04:15:26;7.47;;;6.20;;
54271;SDS011;40184;53.362;5.216;2023-07-28T04:17:52;8.93;;;6.93;;
54271;SDS011;40184;53.362;5.216;2023-07-28T04:20:19;14.43;;;9.15;;
54271;SDS011;40184;53.362;5.216;2023-07-28T04:22:45;10.43;;;9.43;;
54271;SDS011;40184;53.362;5.216;2023-07-28T04:25:11;12.00;;;9.43;;
54271;SDS011;40184;53.362;5.216;2023-07-28T04:27:37;11.18;;;9.80;;
54271;SDS011;40184;53.362;5.216;2023-07-28T04:30:03;17.13;;;10.50;;
54271;SDS011;40184;53.362;5.216;2023-07-28T04:32:30;20.10;;;11.50;;
54271;SDS011;40184;53.362;5.216;2023-07-28T04:34:56;19.58;;;12.23;;
54271;SDS011;40184;53.362;5.216;2023-07-28T04:37:22;18.75;;;10.45;;
54271;SDS011;40184;53.362;5.216;2023-07-28T04:39:48;19.13;;;11.38;;
54271;SDS011;40184;53.362;5.216;2023-07-28T04:42:15;18.92;;;9.38;;
54271;SDS011;40184;53.362;5.216;2023-07-28T04:44:41;28.23;;;11.25;;
54271;SDS011;40184;53.362;5.216;2023-07-28T04:47:07;31.92;;;11.52;;
54271;SDS011;40184;53.362;5.216;2023-07-28T04:49:33;14.95;;;8.60;;
54271;SDS011;40184;53.362;5.216;2023-07-28T04:52:00;16.73;;;9.25;;
54271;SDS011;40184;53.362;5.216;2023-07-28T04:54:26;17.73;;;9.75;;
54271;SDS011;40184;53.362;5.216;2023-07-28T04:56:52;12.30;;;8.50;;
54271;SDS011;40184;53.362;5.216;2023-07-28T04:59:18;11.20;;;8.82;;
54271;SDS011;40184;53.362;5.216;2023-07-28T05:01:44;10.82;;;8.63;;
54271;SDS011;40184;53.362;5.216;2023-07-28T05:04:10;9.07;;;7.90;;
54271;SDS011;40184;53.362;5.216;2023-07-28T05:06:36;8.73;;;7.93;;
54271;SDS011;40184;53.362;5.216;2023-07-28T05:09:02;8.70;;;7.55;;
54271;SDS011;40184;53.362;5.216;2023-07-28T05:11:28;10.27;;;7.85;;
54271;SDS011;40184;53.362;5.216;2023-07-28T05:13:54;9.27;;;7.38;;
54271;SDS011;40184;53.362;5.216;2023-07-28T05:16:20;14.52;;;8.38;;
54271;SDS011;40184;53.362;5.216;2023-07-28T05:18:47;7.88;;;7.07;;
54271;SDS011;40184;53.362;5.216;2023-07-28T05:21:13;8.25;;;7.45;;
54271;SDS011;40184;53.362;5.216;2023-07-28T05:23:39;7.53;;;6.80;;
54271;SDS011;40184;53.362;5.216;2023-07-28T05:26:05;8.20;;;7.35;;
54271;SDS011;40184;53.362;5.216;2023-07-28T05:28:34;7.53;;;6.63;;
54271;SDS011;40184;53.362;5.216;2023-07-28T05:31:07;8.82;;;6.32;;
54271;SDS011;40184;53.362;5.216;2023-07-28T05:33:33;8.85;;;6.95;;
54271;SDS011;40184;53.362;5.216;2023-07-28T05:36:03;7.00;;;6.32;;
54271;SDS011;40184;53.362;5.216;2023-07-28T05:38:29;11.43;;;6.63;;
54271;SDS011;40184;53.362;5.216;2023-07-28T05:40:58;6.00;;;5.40;;
54271;SDS011;40184;53.362;5.216;2023-07-28T05:43:31;5.90;;;5.40;;
54271;SDS011;40184;53.362;5.216;2023-07-28T05:45:57;10.50;;;7.15;;
54271;SDS011;40184;53.362;5.216;2023-07-28T05:48:24;6.20;;;5.03;;
54271;SDS011;40184;53.362;5.216;2023-07-28T05:50:50;6.55;;;4.57;;
54271;SDS011;40184;53.362;5.216;2023-07-28T05:53:18;5.95;;;5.45;;
54271;SDS011;40184;53.362;5.216;2023-07-28T05:55:45;6.88;;;5.38;;
54271;SDS011;40184;53.362;5.216;2023-07-28T05:58:11;9.48;;;6.15;;
54271;SDS011;40184;53.362;5.216;2023-07-28T06:00:38;7.38;;;6.63;;
54271;SDS011;40184;53.362;5.216;2023-07-28T06:03:06;6.82;;;6.22;;
54271;SDS011;40184;53.362;5.216;2023-07-28T06:05:32;7.45;;;5.53;;
54271;SDS011;40184;53.362;5.216;2023-07-28T06:07:58;5.43;;;4.70;;
54271;SDS011;40184;53.362;5.216;2023-07-28T06:10:24;5.05;;;4.10;;
54271;SDS011;40184;53.362;5.216;2023-07-28T06:12:50;5.60;;;4.10;;
54271;SDS011;40184;53.362;5.216;2023-07-28T06:15:16;6.03;;;4.35;;
54271;SDS011;40184;53.362;5.216;2023-07-28T06:17:42;6.00;;;4.57;;
54271;SDS011;40184;53.362;5.216;2023-07-28T06:20:09;5.60;;;5.10;;
54271;SDS011;40184;53.362;5.216;2023-07-28T06:22:35;5.82;;;5.22;;
54271;SDS011;40184;53.362;5.216;2023-07-28T06:25:01;5.68;;;4.75;;
54271;SDS011;40184;53.362;5.216;2023-07-28T06:27:27;5.20;;;4.60;;
54271;SDS011;40184;53.362;5.216;2023-07-28T06:29:54;4.88;;;4.38;;
54271;SDS011;40184;53.362;5.216;2023-07-28T06:32:20;6.20;;;4.90;;
54271;SDS011;40184;53.362;5.216;2023-07-28T06:34:48;7.28;;;5.60;;
54271;SDS011;40184;53.362;5.216;2023-07-28T06:37:15;6.00;;;5.25;;
54271;SDS011;40184;53.362;5.216;2023-07-28T06:39:41;5.78;;;5.20;;
54271;SDS011;40184;53.362;5.216;2023-07-28T06:42:08;6.28;;;5.63;;
54271;SDS011;40184;53.362;5.216;2023-07-28T06:44:34;7.75;;;6.00;;
54271;SDS011;40184;53.362;5.216;2023-07-28T06:47:00;4.78;;;4.38;;
54271;SDS011;40184;53.362;5.216;2023-07-28T06:49:26;7.93;;;5.93;;
54271;SDS011;40184;53.362;5.216;2023-07-28T06:51:52;4.35;;;4.03;;
54271;SDS011;40184;53.362;5.216;2023-07-28T06:54:18;4.63;;;4.30;;
54271;SDS011;40184;53.362;5.216;2023-07-28T06:56:44;14.05;;;4.72;;
54271;SDS011;40184;53.362;5.216;2023-07-28T06:59:10;4.45;;;4.05;;
54271;SDS011;40184;53.362;5.216;2023-07-28T07:01:37;4.18;;;3.88;;
54271;SDS011;40184;53.362;5.216;2023-07-28T07:04:03;3.90;;;3.63;;
54271;SDS011;40184;53.362;5.216;2023-07-28T07:06:30;4.38;;;4.03;;
54271;SDS011;40184;53.362;5.216;2023-07-28T07:08:56;4.88;;;4.47;;
54271;SDS011;40184;53.362;5.216;2023-07-28T07:11:23;4.38;;;4.07;;
54271;SDS011;40184;53.362;5.216;2023-07-28T07:13:49;3.42;;;3.20;;
54271;SDS011;40184;53.362;5.216;2023-07-28T07:16:15;3.75;;;3.55;;
54271;SDS011;40184;53.362;5.216;2023-07-28T07:18:45;3.25;;;3.05;;
54271;SDS011;40184;53.362;5.216;2023-07-28T07:21:11;3.47;;;3.25;;
54271;SDS011;40184;53.362;5.216;2023-07-28T07:23:37;3.10;;;2.92;;
54271;SDS011;40184;53.362;5.216;2023-07-28T07:26:03;2.60;;;2.50;;
54271;SDS011;40184;53.362;5.216;2023-07-28T07:28:29;3.00;;;2.75;;
54271;SDS011;40184;53.362;5.216;2023-07-28T07:30:55;3.88;;;2.35;;
54271;SDS011;40184;53.362;5.216;2023-07-28T07:33:21;2.40;;;2.20;;
54271;SDS011;40184;53.362;5.216;2023-07-28T07:35:47;2.83;;;2.63;;
54271;SDS011;40184;53.362;5.216;2023-07-28T07:38:13;2.80;;;2.60;;
54271;SDS011;40184;53.362;5.216;2023-07-28T07:40:40;3.22;;;2.92;;
54271;SDS011;40184;53.362;5.216;2023-07-28T07:43:06;4.20;;;2.88;;
54271;SDS011;40184;53.362;5.216;2023-07-28T07:45:32;3.42;;;3.13;;
54271;SDS011;40184;53.362;5.216;2023-07-28T07:47:58;2.60;;;2.50;;
54271;SDS011;40184;53.362;5.216;2023-07-28T07:50:24;4.78;;;2.88;;
54271;SDS011;40184;53.362;5.216;2023-07-28T07:52:52;2.95;;;2.75;;
54271;SDS011;40184;53.362;5.216;2023-07-28T07:55:18;2.55;;;2.35;;
54271;SDS011;40184;53.362;5.216;2023-07-28T07:57:44;2.40;;;2.30;;
54271;SDS011;40184;53.362;5.216;2023-07-28T08:00:10;3.03;;;2.60;;
54271;SDS011;40184;53.362;5.216;2023-07-28T08:02:36;2.97;;;2.78;;
54271;SDS011;40184;53.362;5.216;2023-07-28T08:05:02;2.83;;;2.63;;
54271;SDS011;40184;53.362;5.216;2023-07-28T08:07:28;2.78;;;2.60;;
54271;SDS011;40184;53.362;5.216;2023-07-28T08:09:54;2.40;;;2.30;;
54271;SDS011;40184;53.362;5.216;2023-07-28T08:12:21;2.30;;;2.20;;
54271;SDS011;40184;53.362;5.216;2023-07-28T08:14:47;2.90;;;2.70;;
54271;SDS011;40184;53.362;5.216;2023-07-28T08:17:14;3.28;;;2.58;;
54271;SDS011;40184;53.362;5.216;2023-07-28T08:19:40;2.65;;;2.00;;
54271;SDS011;40184;53.362;5.216;2023-07-28T08:22:06;2.20;;;2.10;;
54271;SDS011;40184;53.362;5.216;2023-07-28T08:24:32;5.90;;;3.35;;
54271;SDS011;40184;53.362;5.216;2023-07-28T08:26:58;6.82;;;4.82;;
54271;SDS011;40184;53.362;5.216;2023-07-28T08:29:24;3.75;;;3.45;;
54271;SDS011;40184;53.362;5.216;2023-07-28T08:31:52;3.55;;;2.88;;
54271;SDS011;40184;53.362;5.216;2023-07-28T08:34:18;3.30;;;3.00;;
54271;SDS011;40184;53.362;5.216;2023-07-28T08:36:44;5.35;;;4.07;;
54271;SDS011;40184;53.362;5.216;2023-07-28T08:39:10;4.00;;;3.75;;
54271;SDS011;40184;53.362;5.216;2023-07-28T08:41:37;3.65;;;3.40;;
54271;SDS011;40184;53.362;5.216;2023-07-28T08:44:03;3.55;;;3.20;;
54271;SDS011;40184;53.362;5.216;2023-07-28T08:46:29;3.67;;;3.30;;
54271;SDS011;40184;53.362;5.216;2023-07-28T08:48:56;3.78;;;3.40;;
54271;SDS011;40184;53.362;5.216;2023-07-28T08:51:22;4.22;;;3.88;;
54271;SDS011;40184;53.362;5.216;2023-07-28T08:53:51;4.93;;;4.05;;
54271;SDS011;40184;53.362;5.216;2023-07-28T08:56:18;3.60;;;3.40;;
54271;SDS011;40184;53.362;5.216;2023-07-28T08:58:44;4.43;;;3.97;;
54271;SDS011;40184;53.362;5.216;2023-07-28T09:01:10;5.78;;;4.40;;
54271;SDS011;40184;53.362;5.216;2023-07-28T09:03:39;5.45;;;4.60;;
54271;SDS011;40184;53.362;5.216;2023-07-28T09:06:06;3.95;;;3.67;;
54271;SDS011;40184;53.362;5.216;2023-07-28T09:08:36;4.25;;;3.88;;
54271;SDS011;40184;53.362;5.216;2023-07-28T09:11:03;4.50;;;4.20;;
54271;SDS011;40184;53.362;5.216;2023-07-28T09:13:37;5.25;;;4.80;;
54271;SDS011;40184;53.362;5.216;2023-07-28T09:16:04;7.18;;;6.35;;
54271;SDS011;40184;53.362;5.216;2023-07-28T09:18:30;7.20;;;6.45;;
54271;SDS011;40184;53.362;5.216;2023-07-28T09:20:56;5.00;;;4.60;;
54271;SDS011;40184;53.362;5.216;2023-07-28T09:23:29;4.57;;;4.28;;
54271;SDS011;40184;53.362;5.216;2023-07-28T09:25:59;6.22;;;5.72;;
54271;SDS011;40184;53.362;5.216;2023-07-28T09:28:36;6.10;;;5.60;;
54271;SDS011;40184;53.362;5.216;2023-07-28T09:31:04;6.15;;;5.65;;
54271;SDS011;40184;53.362;5.216;2023-07-28T09:33:31;6.60;;;6.10;;
54271;SDS011;40184;53.362;5.216;2023-07-28T09:35:57;10.77;;;9.73;;
54271;SDS011;40184;53.362;5.216;2023-07-28T09:38:32;5.97;;;5.47;;
54271;SDS011;40184;53.362;5.216;2023-07-28T09:41:00;4.45;;;4.05;;
54271;SDS011;40184;53.362;5.216;2023-07-28T09:43:27;6.95;;;3.78;;
54271;SDS011;40184;53.362;5.216;2023-07-28T09:45:53;4.47;;;4.07;;
54271;SDS011;40184;53.362;5.216;2023-07-28T09:48:19;5.22;;;4.13;;
54271;SDS011;40184;53.362;5.216;2023-07-28T09:50:46;4.20;;;3.63;;
54271;SDS011;40184;53.362;5.216;2023-07-28T09:53:13;4.03;;;3.55;;
54271;SDS011;40184;53.362;5.216;2023-07-28T09:55:39;4.38;;;3.97;;
54271;SDS011;40184;53.362;5.216;2023-07-28T09:58:09;4.55;;;3.72;;
54271;SDS011;40184;53.362;5.216;2023-07-28T10:00:36;3.65;;;3.35;;
54271;SDS011;40184;53.362;5.216;2023-07-28T10:03:03;4.32;;;3.95;;
54271;SDS011;40184;53.362;5.216;2023-07-28T10:05:30;4.65;;;4.25;;
54271;SDS011;40184;53.362;5.216;2023-07-28T10:07:57;4.45;;;3.65;;
54271;SDS011;40184;53.362;5.216;2023-07-28T10:10:24;6.55;;;3.50;;
54271;SDS011;40184;53.362;5.216;2023-07-28T10:12:53;4.43;;;3.33;;
54271;SDS011;40184;53.362;5.216;2023-07-28T10:15:28;4.85;;;3.85;;
54271;SDS011;40184;53.362;5.216;2023-07-28T10:17:54;4.43;;;3.45;;
54271;SDS011;40184;53.362;5.216;2023-07-28T10:23:14;3.75;;;3.25;;
54271;SDS011;40184;53.362;5.216;2023-07-28T10:25:41;2.90;;;2.70;;
54271;SDS011;40184;53.362;5.216;2023-07-28T10:28:08;6.05;;;4.28;;
54271;SDS011;40184;53.362;5.216;2023-07-28T10:30:51;3.20;;;3.00;;
54271;SDS011;40184;53.362;5.216;2023-07-28T10:35:59;2.33;;;2.05;;
54271;SDS011;40184;53.362;5.216;2023-07-28T10:38:30;3.58;;;2.85;;
54271;SDS011;40184;53.362;5.216;2023-07-28T10:41:10;2.65;;;2.45;;
54271;SDS011;40184;53.362;5.216;2023-07-28T10:43:38;3.28;;;2.63;;
54271;SDS011;40184;53.362;5.216;2023-07-28T10:46:05;1.50;;;1.20;;
54271;SDS011;40184;53.362;5.216;2023-07-28T10:48:31;2.75;;;1.35;;
54271;SDS011;40184;53.362;5.216;2023-07-28T10:50:58;2.80;;;1.50;;
54271;SDS011;40184;53.362;5.216;2023-07-28T10:53:25;2.72;;;1.67;;
54271;SDS011;40184;53.362;5.216;2023-07-28T10:55:52;2.90;;;1.90;;
54271;SDS011;40184;53.362;5.216;2023-07-28T10:58:19;2.00;;;1.10;;
54271;SDS011;40184;53.362;5.216;2023-07-28T11:00:45;2.53;;;1.73;;
54271;SDS011;40184;53.362;5.216;2023-07-28T11:03:11;1.95;;;1.33;;
54271;SDS011;40184;53.362;5.216;2023-07-28T11:05:38;3.40;;;1.75;;
54271;SDS011;40184;53.362;5.216;2023-07-28T11:08:05;1.42;;;1.30;;
54271;SDS011;40184;53.362;5.216;2023-07-28T11:10:32;1.55;;;1.35;;
54271;SDS011;40184;53.362;5.216;2023-07-28T11:13:01;1.90;;;1.20;;
54271;SDS011;40184;53.362;5.216;2023-07-28T11:15:27;3.03;;;1.92;;
54271;SDS011;40184;53.362;5.216;2023-07-28T11:17:53;4.82;;;1.90;;
54271;SDS011;40184;53.362;5.216;2023-07-28T11:20:23;4.30;;;1.90;;
54271;SDS011;40184;53.362;5.216;2023-07-28T11:22:56;4.07;;;1.85;;
54271;SDS011;40184;53.362;5.216;2023-07-28T11:25:23;6.82;;;2.17;;
54271;SDS011;40184;53.362;5.216;2023-07-28T11:27:50;2.13;;;1.77;;
54271;SDS011;40184;53.362;5.216;2023-07-28T11:30:17;1.35;;;1.25;;
54271;SDS011;40184;53.362;5.216;2023-07-28T11:32:44;2.22;;;1.25;;
54271;SDS011;40184;53.362;5.216;2023-07-28T11:35:11;2.17;;;0.88;;
54271;SDS011;40184;53.362;5.216;2023-07-28T11:37:41;5.03;;;1.40;;
54271;SDS011;40184;53.362;5.216;2023-07-28T11:40:08;3.35;;;1.33;;
54271;SDS011;40184;53.362;5.216;2023-07-28T11:42:38;1.98;;;0.60;;
54271;SDS011;40184;53.362;5.216;2023-07-28T11:45:05;1.90;;;1.00;;
54271;SDS011;40184;53.362;5.216;2023-07-28T11:47:31;2.15;;;1.02;;
54271;SDS011;40184;53.362;5.216;2023-07-28T11:49:57;3.22;;;0.88;;
54271;SDS011;40184;53.362;5.216;2023-07-28T11:52:30;1.88;;;1.10;;
54271;SDS011;40184;53.362;5.216;2023-07-28T11:54:58;6.53;;;1.45;;
54271;SDS011;40184;53.362;5.216;2023-07-28T11:57:25;3.10;;;1.25;;
54271;SDS011;40184;53.362;5.216;2023-07-28T11:59:51;4.53;;;1.35;;
54271;SDS011;40184;53.362;5.216;2023-07-28T12:02:24;5.03;;;1.67;;
54271;SDS011;40184;53.362;5.216;2023-07-28T12:04:50;3.10;;;1.40;;
54271;SDS011;40184;53.362;5.216;2023-07-28T12:07:18;2.33;;;1.33;;
54271;SDS011;40184;53.362;5.216;2023-07-28T12:12:17;4.47;;;1.80;;
54271;SDS011;40184;53.362;5.216;2023-07-28T12:14:44;1.55;;;1.30;;
54271;SDS011;40184;53.362;5.216;2023-07-28T12:19:54;2.65;;;1.17;;
54271;SDS011;40184;53.362;5.216;2023-07-28T12:22:21;0.88;;;0.70;;
54271;SDS011;40184;53.362;5.216;2023-07-28T12:24:47;0.90;;;0.90;;
54271;SDS011;40184;53.362;5.216;2023-07-28T12:27:13;2.80;;;1.00;;
54271;SDS011;40184;53.362;5.216;2023-07-28T12:29:41;2.75;;;0.80;;
54271;SDS011;40184;53.362;5.216;2023-07-28T12:32:07;0.70;;;0.70;;
54271;SDS011;40184;53.362;5.216;2023-07-28T12:34:33;3.00;;;1.35;;
54271;SDS011;40184;53.362;5.216;2023-07-28T12:36:59;1.58;;;1.08;;
54271;SDS011;40184;53.362;5.216;2023-07-28T12:39:26;5.47;;;1.55;;
54271;SDS011;40184;53.362;5.216;2023-07-28T12:41:52;1.55;;;1.45;;
54271;SDS011;40184;53.362;5.216;2023-07-28T12:44:21;2.63;;;1.48;;
54271;SDS011;40184;53.362;5.216;2023-07-28T12:46:47;2.97;;;1.70;;
54271;SDS011;40184;53.362;5.216;2023-07-28T12:49:13;3.53;;;1.40;;
54271;SDS011;40184;53.362;5.216;2023-07-28T12:51:40;2.83;;;1.23;;
54271;SDS011;40184;53.362;5.216;2023-07-28T12:54:06;0.93;;;0.93;;
54271;SDS011;40184;53.362;5.216;2023-07-28T12:56:33;6.13;;;1.55;;
54271;SDS011;40184;53.362;5.216;2023-07-28T12:58:59;1.90;;;1.17;;
54271;SDS011;40184;53.362;5.216;2023-07-28T13:01:25;3.70;;;1.35;;
54271;SDS011;40184;53.362;5.216;2023-07-28T13:03:51;3.15;;;1.25;;
54271;SDS011;40184;53.362;5.216;2023-07-28T13:06:18;4.20;;;1.10;;
54271;SDS011;40184;53.362;5.216;2023-07-28T13:08:45;4.90;;;1.40;;
54271;SDS011;40184;53.362;5.216;2023-07-28T13:11:11;1.30;;;1.20;;
54271;SDS011;40184;53.362;5.216;2023-07-28T13:13:39;2.20;;;0.95;;
54271;SDS011;40184;53.362;5.216;2023-07-28T13:16:06;3.20;;;1.17;;
54271;SDS011;40184;53.362;5.216;2023-07-28T13:18:32;1.52;;;1.00;;
54271;SDS011;40184;53.362;5.216;2023-07-28T13:20:58;2.38;;;1.20;;
54271;SDS011;40184;53.362;5.216;2023-07-28T13:23:24;1.17;;;1.08;;
54271;SDS011;40184;53.362;5.216;2023-07-28T13:25:51;3.40;;;1.45;;
54271;SDS011;40184;53.362;5.216;2023-07-28T13:28:17;1.55;;;1.00;;
54271;SDS011;40184;53.362;5.216;2023-07-28T13:30:44;4.47;;;1.55;;
54271;SDS011;40184;53.362;5.216;2023-07-28T13:33:10;2.35;;;2.03;;
54271;SDS011;40184;53.362;5.216;2023-07-28T13:35:36;1.35;;;0.90;;
54271;SDS011;40184;53.362;5.216;2023-07-28T13:38:02;1.67;;;1.30;;
54271;SDS011;40184;53.362;5.216;2023-07-28T13:40:28;0.60;;;0.55;;
54271;SDS011;40184;53.362;5.216;2023-07-28T13:42:54;2.90;;;1.33;;
54271;SDS011;40184;53.362;5.216;2023-07-28T13:45:20;0.73;;;0.73;;
54271;SDS011;40184;53.362;5.216;2023-07-28T13:47:47;4.60;;;1.23;;
54271;SDS011;40184;53.362;5.216;2023-07-28T13:50:13;1.40;;;1.02;;
54271;SDS011;40184;53.362;5.216;2023-07-28T13:52:39;2.25;;;1.30;;
54271;SDS011;40184;53.362;5.216;2023-07-28T13:55:05;2.03;;;1.55;;
54271;SDS011;40184;53.362;5.216;2023-07-28T13:57:31;0.98;;;0.95;;
54271;SDS011;40184;53.362;5.216;2023-07-28T13:59:58;3.13;;;0.93;;
54271;SDS011;40184;53.362;5.216;2023-07-28T14:02:24;1.63;;;1.10;;
54271;SDS011;40184;53.362;5.216;2023-07-28T14:04:50;2.95;;;1.27;;
54271;SDS011;40184;53.362;5.216;2023-07-28T14:07:16;5.55;;;1.40;;
54271;SDS011;40184;53.362;5.216;2023-07-28T14:09:42;1.55;;;1.40;;
54271;SDS011;40184;53.362;5.216;2023-07-28T14:12:08;1.88;;;1.20;;
54271;SDS011;40184;53.362;5.216;2023-07-28T14:14:34;1.75;;;1.17;;
54271;SDS011;40184;53.362;5.216;2023-07-28T14:17:00;1.13;;;1.02;;
54271;SDS011;40184;53.362;5.216;2023-07-28T14:19:26;1.83;;;1.05;;
54271;SDS011;40184;53.362;5.216;2023-07-28T14:21:52;1.45;;;1.10;;
54271;SDS011;40184;53.362;5.216;2023-07-28T14:24:19;1.67;;;1.10;;
54271;SDS011;40184;53.362;5.216;2023-07-28T14:26:45;1.50;;;1.40;;
54271;SDS011;40184;53.362;5.216;2023-07-28T14:29:11;1.48;;;1.25;;
54271;SDS011;40184;53.362;5.216;2023-07-28T14:31:37;1.00;;;1.00;;
54271;SDS011;40184;53.362;5.216;2023-07-28T14:34:03;1.13;;;1.00;;
54271;SDS011;40184;53.362;5.216;2023-07-28T14:36:29;1.55;;;0.88;;
54271;SDS011;40184;53.362;5.216;2023-07-28T14:38:55;1.23;;;0.93;;
54271;SDS011;40184;53.362;5.216;2023-07-28T14:41:21;3.22;;;1.45;;
54271;SDS011;40184;53.362;5.216;2023-07-28T14:43:47;1.48;;;1.05;;
54271;SDS011;40184;53.362;5.216;2023-07-28T14:46:14;3.88;;;1.20;;
54271;SDS011;40184;53.362;5.216;2023-07-28T14:48:40;2.15;;;1.13;;
54271;SDS011;40184;53.362;5.216;2023-07-28T14:51:06;0.93;;;0.93;;
54271;SDS011;40184;53.362;5.216;2023-07-28T14:53:36;2.63;;;1.10;;
54271;SDS011;40184;53.362;5.216;2023-07-28T14:56:03;4.15;;;1.30;;